Time;durP1;ratioP1;P1;durP2;ratioP2;P2;SDS_P1;SDS_P2;PMS_P1;PMS_P2;Temp;Humidity;BMP_temperature;BMP_pressure;BME280_temperature;BME280_humidity;BME280_pressure;Samples;Min_cycle;Max_cycle;Signal;HPM_P1;HPM_P2
2023/06/05 00:00:57;;;;;;;1.35;0.82;;;22.00;1.00;;;;;;4861465;29;20041;-48
2023/06/05 00:03:26;;;;;;;1.95;1.17;;;21.90;1.00;;;;;;4861877;29;20077;-49
2023/06/05 00:05:54;;;;;;;2.53;0.75;;;21.90;1.00;;;;;;4861934;29;20073;-47
2023/06/05 00:08:21;;;;;;;2.08;0.90;;;21.90;1.00;;;;;;4863019;29;20102;-46
2023/06/05 00:10:48;;;;;;;0.90;0.68;;;21.90;1.00;;;;;;4859395;29;20053;-48
2023/06/05 00:13:16;;;;;;;1.60;0.98;;;21.90;1.00;;;;;;4861624;29;20053;-52
2023/06/05 00:15:42;;;;;;;1.30;0.80;;;21.80;1.00;;;;;;4861537;29;20120;-51
2023/06/05 00:18:09;;;;;;;2.30;0.73;;;21.80;1.00;;;;;;4861666;29;20109;-49
2023/06/05 00:20:36;;;;;;;2.45;1.00;;;21.80;1.00;;;;;;4861258;29;20339;-48
2023/06/05 00:23:03;;;;;;;1.63;0.80;;;21.80;1.00;;;;;;4861552;29;20049;-48
2023/06/05 00:25:30;;;;;;;1.50;0.90;;;21.80;1.00;;;;;;4861561;29;20041;-48
2023/06/05 00:27:57;;;;;;;3.22;1.02;;;21.80;1.00;;;;;;4860277;29;20079;-48
2023/06/05 00:30:24;;;;;;;1.80;1.15;;;21.80;1.00;;;;;;4859706;29;20061;-49
2023/06/05 00:32:51;;;;;;;1.63;0.80;;;21.80;1.00;;;;;;4860311;29;20432;-46
2023/06/05 00:35:18;;;;;;;1.10;0.70;;;21.80;1.00;;;;;;4860150;29;20141;-49
2023/06/05 00:37:46;;;;;;;1.20;0.77;;;21.80;1.00;;;;;;4852361;29;20569;-49
2023/06/05 00:40:14;;;;;;;1.58;0.90;;;21.80;1.00;;;;;;4859122;29;20049;-49
2023/06/05 00:42:40;;;;;;;1.90;1.00;;;21.80;1.00;;;;;;4869980;29;20049;-49
2023/06/05 00:45:07;;;;;;;1.45;0.75;;;21.80;1.00;;;;;;4860011;29;20505;-48
2023/06/05 00:47:35;;;;;;;1.42;0.70;;;21.70;1.00;;;;;;4859537;29;20106;-46
2023/06/05 00:50:03;;;;;;;1.27;0.75;;;21.70;1.00;;;;;;4860870;29;20384;-46
2023/06/05 00:52:32;;;;;;;1.13;0.70;;;21.70;1.00;;;;;;4859748;29;20065;-48
2023/06/05 00:54:59;;;;;;;1.48;0.90;;;21.70;1.00;;;;;;4859746;29;20053;-48
2023/06/05 00:57:28;;;;;;;1.20;1.10;;;21.70;1.00;;;;;;4859895;29;20049;-49
2023/06/05 00:59:55;;;;;;;2.13;0.70;;;21.70;1.00;;;;;;4859468;29;20128;-47
2023/06/05 01:02:21;;;;;;;3.70;1.08;;;21.70;1.00;;;;;;4859776;29;20050;-51
2023/06/05 01:04:48;;;;;;;0.93;0.50;;;21.70;1.00;;;;;;4860321;29;20037;-48
2023/06/05 01:07:16;;;;;;;0.95;0.60;;;21.70;1.00;;;;;;4859728;29;20205;-47
2023/06/05 01:09:44;;;;;;;1.17;0.77;;;21.70;1.00;;;;;;4862028;29;20452;-49
2023/06/05 01:12:32;;;;;;;0.90;0.50;;;21.70;1.00;;;;;;4860041;29;20084;-47
2023/06/05 01:15:02;;;;;;;1.33;0.68;;;21.70;1.00;;;;;;4868932;29;20058;-47
2023/06/05 01:17:32;;;;;;;1.58;1.02;;;21.70;1.00;;;;;;4859208;29;20233;-47
2023/06/05 01:20:02;;;;;;;2.00;0.70;;;21.60;1.00;;;;;;4859087;29;20046;-47
2023/06/05 01:22:30;;;;;;;2.20;1.77;;;21.60;1.00;;;;;;4860580;29;20453;-47
2023/06/05 01:24:59;;;;;;;1.73;0.73;;;21.60;1.00;;;;;;4859457;29;20092;-46
2023/06/05 01:27:54;;;;;;;1.10;0.65;;;21.60;1.00;;;;;;4859098;29;20134;-46
2023/06/05 01:30:28;;;;;;;1.52;0.70;;;21.60;1.00;;;;;;4859908;29;20075;-47
2023/06/05 01:33:20;;;;;;;0.98;0.50;;;21.60;1.00;;;;;;4859241;29;20045;-46
2023/06/05 01:35:51;;;;;;;0.93;0.70;;;21.60;1.00;;;;;;4860404;29;20041;-46
2023/06/05 01:38:19;;;;;;;1.27;0.63;;;21.60;1.00;;;;;;4860232;29;20101;-46
2023/06/05 01:40:48;;;;;;;0.90;0.82;;;21.60;1.00;;;;;;4851325;29;20477;-47
2023/06/05 01:43:17;;;;;;;1.67;1.00;;;21.60;1.00;;;;;;4859124;29;20049;-46
2023/06/05 01:45:44;;;;;;;1.33;0.60;;;21.50;1.00;;;;;;4860063;29;20076;-46
2023/06/05 01:48:11;;;;;;;1.92;0.68;;;21.50;1.00;;;;;;4858822;29;20049;-46
2023/06/05 01:50:38;;;;;;;1.60;0.80;;;21.50;1.00;;;;;;4859715;29;20420;-46
2023/06/05 01:53:05;;;;;;;2.17;0.70;;;21.50;1.00;;;;;;4858879;29;20094;-46
2023/06/05 01:55:32;;;;;;;1.30;0.88;;;21.50;1.00;;;;;;4860103;29;20045;-46
2023/06/05 01:57:59;;;;;;;1.48;0.60;;;21.50;1.00;;;;;;4858697;29;20112;-46
2023/06/05 02:00:27;;;;;;;3.70;0.77;;;21.50;1.00;;;;;;4858292;29;20109;-49
2023/06/05 02:02:54;;;;;;;1.55;0.88;;;21.50;1.00;;;;;;4858931;29;20049;-48
2023/06/05 02:05:21;;;;;;;1.20;0.60;;;21.50;1.00;;;;;;4858753;29;20502;-45
2023/06/05 02:07:53;;;;;;;2.20;0.85;;;21.40;1.00;;;;;;4858651;29;20080;-46
2023/06/05 02:10:20;;;;;;;0.82;0.50;;;21.50;1.00;;;;;;4861004;29;20082;-46
2023/06/05 02:12:47;;;;;;;2.58;0.90;;;21.40;1.00;;;;;;4858212;29;20466;-49
2023/06/05 02:15:14;;;;;;;1.17;0.73;;;21.40;1.00;;;;;;4859610;29;20045;-46
2023/06/05 02:17:44;;;;;;;2.20;0.73;;;21.40;1.00;;;;;;4859498;29;20098;-47
2023/06/05 02:20:12;;;;;;;2.72;0.90;;;21.40;1.00;;;;;;4858070;29;20038;-47
2023/06/05 02:22:41;;;;;;;1.42;0.85;;;21.40;1.00;;;;;;4859577;29;20061;-47
2023/06/05 02:25:10;;;;;;;3.60;0.93;;;21.40;1.00;;;;;;4858474;29;20041;-46
2023/06/05 02:27:37;;;;;;;1.92;1.13;;;21.40;1.00;;;;;;4858351;29;20057;-45
2023/06/05 02:30:05;;;;;;;2.17;0.95;;;21.40;1.00;;;;;;4858033;29;20053;-45
2023/06/05 02:32:32;;;;;;;0.93;0.60;;;21.40;1.00;;;;;;4859604;29;20409;-46
2023/06/05 02:34:59;;;;;;;1.75;0.80;;;21.40;1.00;;;;;;4859583;29;20067;-46
2023/06/05 02:37:28;;;;;;;1.48;0.77;;;21.40;1.00;;;;;;4859667;29;20508;-47
2023/06/05 02:39:55;;;;;;;1.50;1.00;;;21.40;1.00;;;;;;4858074;29;20541;-47
2023/06/05 02:42:22;;;;;;;1.38;0.63;;;21.30;1.00;;;;;;4858198;29;20568;-49
2023/06/05 02:44:49;;;;;;;2.20;0.90;;;21.40;1.00;;;;;;4858005;29;20048;-48
2023/06/05 02:47:16;;;;;;;2.15;1.55;;;21.30;1.00;;;;;;4859787;29;20084;-46
2023/06/05 02:49:43;;;;;;;2.85;1.10;;;21.30;1.00;;;;;;4857889;29;20042;-46
2023/06/05 02:52:10;;;;;;;1.15;0.85;;;21.30;1.00;;;;;;4858711;29;20382;-46
2023/06/05 02:54:37;;;;;;;1.85;0.80;;;21.30;1.00;;;;;;4858264;29;20088;-45
2023/06/05 02:57:08;;;;;;;1.92;0.90;;;21.30;1.00;;;;;;4858072;29;20118;-49
2023/06/05 02:59:39;;;;;;;1.65;0.77;;;21.30;1.00;;;;;;4858004;29;20045;-48
2023/06/05 03:02:11;;;;;;;0.77;0.55;;;21.30;1.00;;;;;;4858223;29;20076;-46
2023/06/05 03:04:42;;;;;;;2.55;1.35;;;21.30;1.00;;;;;;4856433;29;20041;-45
2023/06/05 03:07:12;;;;;;;29.45;1.60;;;21.30;1.00;;;;;;4856512;29;20049;-48
2023/06/05 03:09:41;;;;;;;3.75;0.85;;;21.30;1.00;;;;;;4852209;29;20136;-46
2023/06/05 03:12:08;;;;;;;1.77;1.02;;;21.30;1.00;;;;;;4865363;29;20524;-46
2023/06/05 03:14:35;;;;;;;3.25;0.90;;;21.30;1.00;;;;;;4856885;29;20502;-47
2023/06/05 03:17:03;;;;;;;2.28;1.15;;;21.40;1.00;;;;;;4854006;29;20199;-46
2023/06/05 03:19:30;;;;;;;2.00;0.75;;;21.50;1.00;;;;;;4855874;29;20058;-48
2023/06/05 03:22:00;;;;;;;9.15;1.58;;;21.50;1.00;;;;;;4853474;29;20144;-46
2023/06/05 03:24:28;;;;;;;2.05;0.98;;;21.60;1.00;;;;;;4858200;29;20042;-48
2023/06/05 03:27:00;;;;;;;2.20;1.03;;;21.60;1.00;;;;;;4857768;29;20080;-50
2023/06/05 03:29:28;;;;;;;1.05;0.65;;;21.60;1.00;;;;;;4858750;29;20285;-47
2023/06/05 03:31:55;;;;;;;2.13;0.82;;;21.60;1.00;;;;;;4859275;29;20049;-47
2023/06/05 03:34:25;;;;;;;1.58;0.93;;;21.60;1.00;;;;;;4860531;29;20053;-46
2023/06/05 03:36:58;;;;;;;1.55;1.20;;;21.50;1.00;;;;;;4860957;29;20055;-47
2023/06/05 03:39:26;;;;;;;1.65;0.93;;;21.50;1.00;;;;;;4860072;29;20045;-47
2023/06/05 03:41:54;;;;;;;1.80;0.70;;;21.50;1.00;;;;;;4862165;29;20048;-47
2023/06/05 03:44:24;;;;;;;1.40;0.70;;;21.50;1.00;;;;;;4860785;29;20061;-47
2023/06/05 03:46:52;;;;;;;1.27;0.77;;;21.50;1.00;;;;;;4862253;29;20034;-47
2023/06/05 03:49:22;;;;;;;2.88;1.00;;;21.40;1.00;;;;;;4860873;29;20077;-46
2023/06/05 03:51:51;;;;;;;2.15;0.90;;;21.40;1.00;;;;;;4860763;29;20078;-46
2023/06/05 03:54:18;;;;;;;3.55;0.70;;;21.40;1.00;;;;;;4860811;29;20057;-45
2023/06/05 03:56:49;;;;;;;1.92;1.20;;;21.40;1.00;;;;;;4861896;29;20045;-46
2023/06/05 03:59:22;;;;;;;2.55;1.15;;;21.40;1.00;;;;;;4860893;29;20062;-46
2023/06/05 04:01:56;;;;;;;3.40;0.88;;;21.40;1.00;;;;;;4845952;29;20501;-48
2023/06/05 04:04:24;;;;;;;1.30;0.80;;;21.30;1.00;;;;;;4860408;29;20110;-46
2023/06/05 04:06:54;;;;;;;2.55;0.85;;;21.30;1.00;;;;;;4861768;29;20033;-47
2023/06/05 04:09:23;;;;;;;1.15;0.70;;;21.30;1.00;;;;;;4862006;29;20042;-50
2023/06/05 04:11:50;;;;;;;1.58;1.15;;;21.30;1.00;;;;;;4861911;29;20038;-46
2023/06/05 04:14:17;;;;;;;1.73;1.02;;;21.30;1.00;;;;;;4860306;29;20060;-50
2023/06/05 04:16:44;;;;;;;1.58;0.57;;;21.30;1.00;;;;;;4860330;29;20549;-46
2023/06/05 04:19:17;;;;;;;1.25;0.73;;;21.30;1.00;;;;;;4861808;29;20040;-46
2023/06/05 04:21:46;;;;;;;2.88;0.90;;;21.20;1.00;;;;;;4860106;29;20067;-47
2023/06/05 04:24:13;;;;;;;1.27;0.60;;;21.20;1.00;;;;;;4860442;29;20500;-47
2023/06/05 04:26:41;;;;;;;1.33;0.77;;;21.20;1.00;;;;;;4861375;29;20045;-47
2023/06/05 04:29:16;;;;;;;1.65;1.08;;;21.20;1.00;;;;;;4861611;29;20101;-47
2023/06/05 04:31:47;;;;;;;2.35;0.80;;;21.20;1.00;;;;;;4859897;29;20144;-47
2023/06/05 04:34:14;;;;;;;1.35;0.93;;;21.20;1.00;;;;;;4860059;29;20049;-46
2023/06/05 04:36:41;;;;;;;2.95;1.00;;;21.20;1.00;;;;;;4860013;29;20049;-47
2023/06/05 04:39:14;;;;;;;1.42;0.80;;;21.20;1.00;;;;;;4859058;29;20042;-46
2023/06/05 04:41:46;;;;;;;1.63;0.65;;;21.10;1.00;;;;;;4859487;29;20132;-47
2023/06/05 04:44:24;;;;;;;1.75;1.10;;;21.10;1.00;;;;;;4859605;29;20052;-47
2023/06/05 04:46:51;;;;;;;1.58;0.70;;;21.10;1.00;;;;;;4861276;29;20041;-49
2023/06/05 04:49:19;;;;;;;0.68;0.55;;;21.10;1.00;;;;;;4859758;29;20053;-46
2023/06/05 04:51:46;;;;;;;1.77;0.85;;;21.10;1.00;;;;;;4860879;29;20454;-47
2023/06/05 04:54:14;;;;;;;1.20;0.65;;;21.10;1.00;;;;;;4859847;29;20149;-49
2023/06/05 04:56:41;;;;;;;2.05;0.95;;;21.00;1.00;;;;;;4859720;29;20080;-47
2023/06/05 04:59:09;;;;;;;1.40;0.98;;;21.10;1.00;;;;;;4859518;29;20451;-47
2023/06/05 05:01:36;;;;;;;2.80;0.85;;;21.00;1.00;;;;;;4859053;29;20053;-49
2023/06/05 05:04:04;;;;;;;3.45;0.80;;;21.00;1.00;;;;;;4859609;29;20045;-47
2023/06/05 05:06:33;;;;;;;1.98;1.08;;;21.00;1.00;;;;;;4859509;29;20050;-48
2023/06/05 05:09:00;;;;;;;1.85;1.10;;;21.00;1.00;;;;;;4860990;29;20110;-48
2023/06/05 05:11:30;;;;;;;1.75;0.70;;;21.00;1.00;;;;;;4859164;29;20488;-45
2023/06/05 05:13:57;;;;;;;1.65;0.90;;;21.00;1.00;;;;;;4860592;29;20083;-47
2023/06/05 05:16:25;;;;;;;1.73;0.80;;;21.00;1.00;;;;;;4859291;29;20049;-47
2023/06/05 05:18:52;;;;;;;2.05;0.80;;;21.00;1.00;;;;;;4859068;29;20045;-47
2023/06/05 05:21:18;;;;;;;2.30;0.80;;;21.00;1.00;;;;;;4860234;29;20061;-47
2023/06/05 05:23:46;;;;;;;1.55;0.85;;;21.00;1.00;;;;;;4860390;29;20029;-47
2023/06/05 05:26:13;;;;;;;1.30;0.88;;;20.90;1.00;;;;;;4860546;29;20516;-47
2023/06/05 05:28:40;;;;;;;1.20;0.65;;;20.90;1.00;;;;;;4860505;29;20059;-49
2023/06/05 05:31:07;;;;;;;1.42;1.00;;;20.90;1.00;;;;;;4858622;29;20050;-47
2023/06/05 05:33:36;;;;;;;1.50;1.17;;;20.90;1.00;;;;;;4858859;29;20049;-49
2023/06/05 05:36:03;;;;;;;0.95;0.70;;;20.90;1.00;;;;;;4859294;29;20056;-49
2023/06/05 05:38:30;;;;;;;1.70;1.00;;;20.90;1.00;;;;;;4858949;29;20413;-47
2023/06/05 05:40:57;;;;;;;1.98;1.10;;;20.90;1.00;;;;;;4858655;29;20405;-47
2023/06/05 05:43:25;;;;;;;2.50;0.70;;;20.90;1.00;;;;;;4858834;29;20501;-47
2023/06/05 05:45:52;;;;;;;1.60;0.70;;;20.90;1.00;;;;;;4860297;29;20091;-52
2023/06/05 05:48:19;;;;;;;1.45;0.90;;;20.90;1.00;;;;;;4860063;29;20061;-46
2023/06/05 05:50:46;;;;;;;2.40;1.17;;;20.90;1.00;;;;;;4859646;29;20220;-47
2023/06/05 05:53:13;;;;;;;1.15;0.65;;;20.80;1.00;;;;;;4860044;29;20045;-47
2023/06/05 05:55:39;;;;;;;2.22;0.88;;;20.90;1.00;;;;;;4859968;29;20060;-47
2023/06/05 05:58:06;;;;;;;3.78;1.00;;;20.90;1.00;;;;;;4859865;29;20045;-48
2023/06/05 06:00:34;;;;;;;1.27;0.63;;;20.80;1.00;;;;;;4859343;29;20098;-47
2023/06/05 06:03:01;;;;;;;2.35;0.90;;;20.80;1.00;;;;;;4859973;29;20128;-46
2023/06/05 06:05:29;;;;;;;2.05;0.82;;;20.80;1.00;;;;;;4859998;29;20033;-50
2023/06/05 06:07:56;;;;;;;2.03;1.25;;;20.80;1.00;;;;;;4859691;29;20393;-46
2023/06/05 06:10:23;;;;;;;1.60;0.75;;;20.80;1.00;;;;;;4860201;29;20049;-48
2023/06/05 06:12:50;;;;;;;1.02;0.77;;;20.80;1.00;;;;;;4859895;29;20093;-47
2023/06/05 06:15:17;;;;;;;0.68;0.40;;;20.80;1.00;;;;;;4859791;29;20113;-47
2023/06/05 06:17:44;;;;;;;2.70;1.10;;;20.80;1.00;;;;;;4859605;29;20064;-47
2023/06/05 06:20:13;;;;;;;1.45;1.13;;;20.80;1.00;;;;;;4859331;29;20041;-48
2023/06/05 06:22:43;;;;;;;2.38;0.90;;;20.80;1.00;;;;;;4859603;29;20050;-47
2023/06/05 06:25:11;;;;;;;2.67;0.75;;;20.80;1.00;;;;;;4859607;29;20041;-47
2023/06/05 06:27:38;;;;;;;2.22;0.55;;;20.80;1.00;;;;;;4859682;29;20048;-49
2023/06/05 06:30:07;;;;;;;1.17;0.88;;;20.80;1.00;;;;;;4859179;29;20038;-51
2023/06/05 06:32:34;;;;;;;1.30;0.60;;;20.80;1.00;;;;;;4858320;29;20056;-46
2023/06/05 06:35:01;;;;;;;1.83;1.10;;;20.70;1.00;;;;;;4859595;29;20056;-45
2023/06/05 06:37:28;;;;;;;2.10;1.10;;;20.70;1.00;;;;;;4859212;29;20045;-46
2023/06/05 06:39:55;;;;;;;3.05;1.15;;;20.70;1.00;;;;;;4859565;29;20116;-46
2023/06/05 06:42:22;;;;;;;1.92;1.23;;;20.70;1.00;;;;;;4863058;29;20042;-47
2023/06/05 06:44:59;;;;;;;1.35;1.10;;;20.70;1.00;;;;;;4862287;29;20046;-46
2023/06/05 06:47:25;;;;;;;4.53;1.17;;;20.70;1.00;;;;;;4862033;29;20052;-49
2023/06/05 06:49:53;;;;;;;1.88;1.13;;;20.70;1.00;;;;;;4860116;29;20085;-50
2023/06/05 06:52:21;;;;;;;0.90;0.80;;;20.70;1.00;;;;;;4859436;29;20120;-48
2023/06/05 06:54:51;;;;;;;1.45;0.93;;;20.70;1.00;;;;;;4859340;29;20128;-47
2023/06/05 06:57:18;;;;;;;1.48;1.23;;;20.70;1.00;;;;;;4859540;29;20046;-46
2023/06/05 06:59:45;;;;;;;1.25;0.82;;;20.70;1.00;;;;;;4858691;29;20045;-46
2023/06/05 07:02:17;;;;;;;2.13;1.10;;;20.70;1.00;;;;;;4861251;29;20037;-46
2023/06/05 07:04:45;;;;;;;1.00;0.73;;;20.70;1.00;;;;;;4862799;29;20041;-48
2023/06/05 07:07:14;;;;;;;2.75;1.35;;;20.70;1.00;;;;;;4862940;29;20103;-49
2023/06/05 07:09:42;;;;;;;1.52;0.90;;;20.70;1.00;;;;;;4864048;29;20576;-48
2023/06/05 07:12:11;;;;;;;1.48;1.08;;;20.70;1.00;;;;;;4862765;29;20467;-46
2023/06/05 07:14:39;;;;;;;1.73;0.95;;;20.70;1.00;;;;;;4862694;29;20545;-46
2023/06/05 07:17:06;;;;;;;1.73;1.17;;;20.70;1.00;;;;;;4862603;29;20404;-50
2023/06/05 07:19:36;;;;;;;1.17;0.68;;;20.60;1.00;;;;;;4862225;29;20045;-47
2023/06/05 07:22:04;;;;;;;2.53;0.90;;;20.60;1.00;;;;;;4862635;29;20056;-46
2023/06/05 07:24:32;;;;;;;1.33;0.80;;;20.60;1.00;;;;;;4862560;29;20529;-46
2023/06/05 07:27:01;;;;;;;2.03;1.38;;;20.60;1.00;;;;;;4862519;29;20044;-50
2023/06/05 07:29:28;;;;;;;1.20;0.80;;;20.60;1.00;;;;;;4862007;29;20054;-47
2023/06/05 07:31:56;;;;;;;3.50;1.10;;;20.60;1.00;;;;;;4862209;29;20640;-49
2023/06/05 07:34:25;;;;;;;3.13;1.00;;;20.60;1.00;;;;;;4862256;29;20053;-46
2023/06/05 07:36:52;;;;;;;1.75;1.02;;;20.60;1.00;;;;;;4862336;29;20058;-46
2023/06/05 07:39:21;;;;;;;1.83;1.00;;;20.60;1.00;;;;;;4862134;29;20046;-46
2023/06/05 07:41:48;;;;;;;2.78;1.10;;;20.60;1.00;;;;;;4854435;29;20494;-47
2023/06/05 07:44:17;;;;;;;1.77;1.20;;;20.60;1.00;;;;;;4862387;29;20076;-46
2023/06/05 07:46:46;;;;;;;3.75;1.00;;;20.60;1.00;;;;;;4862118;29;20074;-47
2023/06/05 07:49:14;;;;;;;1.45;0.85;;;20.60;1.00;;;;;;4861892;29;20053;-49
2023/06/05 07:51:42;;;;;;;1.85;0.90;;;20.50;1.00;;;;;;4861690;29;20521;-48
2023/06/05 07:54:10;;;;;;;1.40;1.00;;;20.60;1.00;;;;;;4862178;29;20069;-47
2023/06/05 07:56:38;;;;;;;2.50;0.98;;;20.60;1.00;;;;;;4861926;29;20046;-49
2023/06/05 07:59:06;;;;;;;1.83;1.00;;;20.60;1.00;;;;;;4861784;29;20041;-46
2023/06/05 08:01:36;;;;;;;1.10;0.80;;;20.60;1.00;;;;;;4861573;29;20497;-48
2023/06/05 08:04:07;;;;;;;3.10;1.20;;;20.60;1.00;;;;;;4862325;29;20443;-45
2023/06/05 08:06:37;;;;;;;1.88;1.25;;;20.60;1.00;;;;;;4861942;29;20041;-47
2023/06/05 08:09:05;;;;;;;2.22;0.98;;;20.60;1.00;;;;;;4863538;29;20050;-49
2023/06/05 08:11:32;;;;;;;1.30;1.02;;;20.60;1.00;;;;;;4861438;29;20122;-48
2023/06/05 08:13:59;;;;;;;1.88;0.90;;;20.60;1.00;;;;;;4861965;29;20041;-46
2023/06/05 08:16:26;;;;;;;1.38;1.00;;;20.50;1.00;;;;;;4861479;29;20486;-46
2023/06/05 08:18:53;;;;;;;1.42;0.90;;;20.50;1.00;;;;;;4861741;29;20120;-50
2023/06/05 08:21:20;;;;;;;2.35;1.20;;;20.50;1.00;;;;;;4861546;29;20049;-47
2023/06/05 08:23:47;;;;;;;1.40;1.13;;;20.50;1.00;;;;;;4861656;29;20038;-47
2023/06/05 08:26:14;;;;;;;1.33;0.93;;;20.50;1.00;;;;;;4861537;29;20057;-47
2023/06/05 08:28:41;;;;;;;1.80;0.70;;;20.50;1.00;;;;;;4861584;29;20093;-47
2023/06/05 08:31:09;;;;;;;1.77;1.05;;;20.50;1.00;;;;;;4861139;29;20042;-49
2023/06/05 08:33:37;;;;;;;1.77;1.20;;;20.50;1.00;;;;;;4861287;29;20109;-47
2023/06/05 08:36:05;;;;;;;1.98;1.35;;;20.50;1.00;;;;;;4860341;29;20100;-49
2023/06/05 08:38:33;;;;;;;1.33;0.73;;;20.50;1.00;;;;;;4861286;29;20065;-49
2023/06/05 08:41:01;;;;;;;1.65;1.10;;;20.50;1.00;;;;;;4861170;29;20113;-46
2023/06/05 08:43:28;;;;;;;2.53;1.25;;;20.50;1.00;;;;;;4861558;29;20042;-48
2023/06/05 08:45:59;;;;;;;1.73;1.10;;;20.50;1.00;;;;;;4861405;29;20052;-47
2023/06/05 08:48:31;;;;;;;2.10;0.93;;;20.50;1.00;;;;;;4861236;29;20049;-47
2023/06/05 08:50:59;;;;;;;1.88;1.20;;;20.50;1.00;;;;;;4860754;29;20052;-46
2023/06/05 08:53:32;;;;;;;2.25;0.90;;;20.50;1.00;;;;;;4860987;29;20410;-47
2023/06/05 08:55:59;;;;;;;1.70;0.77;;;20.50;1.00;;;;;;4861054;29;20045;-48
2023/06/05 08:58:26;;;;;;;4.25;1.52;;;20.50;1.00;;;;;;4860211;29;20486;-47
2023/06/05 09:00:54;;;;;;;1.52;0.88;;;20.50;1.00;;;;;;4860187;29;20046;-51
2023/06/05 09:03:21;;;;;;;1.90;1.15;;;20.50;1.00;;;;;;4861149;29;20041;-46
2023/06/05 09:05:48;;;;;;;2.22;1.23;;;20.50;1.00;;;;;;4860802;29;20113;-50
2023/06/05 09:08:27;;;;;;;2.72;0.80;;;20.50;1.00;;;;;;4861683;29;20125;-46
2023/06/05 09:10:54;;;;;;;1.42;0.98;;;20.50;1.00;;;;;;4853176;29;20037;-45
2023/06/05 09:13:24;;;;;;;1.10;0.95;;;20.50;1.00;;;;;;4860766;29;20056;-49
2023/06/05 09:15:51;;;;;;;2.95;1.45;;;20.50;1.00;;;;;;4853731;29;20033;-50
2023/06/05 09:18:18;;;;;;;2.33;1.73;;;20.50;1.00;;;;;;4860712;29;20042;-53
2023/06/05 09:20:48;;;;;;;2.35;1.20;;;20.50;1.00;;;;;;4860225;29;20048;-50
2023/06/05 09:23:24;;;;;;;1.92;1.10;;;20.50;1.00;;;;;;4860490;29;20129;-49
2023/06/05 09:25:54;;;;;;;2.15;1.08;;;20.50;1.00;;;;;;4860150;29;20045;-48
2023/06/05 09:28:21;;;;;;;2.15;1.35;;;20.50;1.00;;;;;;4860467;29;20046;-47
2023/06/05 09:31:03;;;;;;;2.78;1.67;;;20.50;1.00;;;;;;4852561;29;20113;-47
2023/06/05 09:33:33;;;;;;;1.60;0.97;;;20.50;1.00;;;;;;4860365;29;20041;-47
2023/06/05 09:36:18;;;;;;;1.80;1.05;;;20.50;1.00;;;;;;4860492;29;20692;-49
2023/06/05 09:38:45;;;;;;;1.20;0.90;;;20.50;1.00;;;;;;4859911;29;20401;-49
2023/06/05 09:41:20;;;;;;;1.65;1.10;;;20.50;1.00;;;;;;4859929;29;20120;-50
2023/06/05 09:43:49;;;;;;;0.98;0.73;;;20.50;1.00;;;;;;4860196;29;20068;-47
2023/06/05 09:46:17;;;;;;;1.98;0.98;;;20.50;1.00;;;;;;4860370;29;20033;-47
2023/06/05 09:48:52;;;;;;;1.98;1.17;;;20.50;1.00;;;;;;4860370;29;20094;-47
2023/06/05 09:51:20;;;;;;;2.63;1.48;;;20.50;1.00;;;;;;4860441;29;20049;-49
2023/06/05 09:53:49;;;;;;;1.13;0.63;;;20.50;1.00;;;;;;4859969;29;20105;-48
2023/06/05 09:56:18;;;;;;;1.60;0.93;;;20.50;1.00;;;;;;4860127;29;20045;-48
2023/06/05 09:58:52;;;;;;;1.80;1.20;;;20.50;1.00;;;;;;4859795;29;20037;-48
2023/06/05 10:01:22;;;;;;;1.27;0.90;;;20.50;1.00;;;;;;4860007;29;20052;-49
2023/06/05 10:03:58;;;;;;;1.73;1.17;;;20.50;1.00;;;;;;4860169;29;20098;-50
2023/06/05 10:06:28;;;;;;;1.40;0.88;;;20.50;1.00;;;;;;4860057;29;20493;-48
2023/06/05 10:08:56;;;;;;;1.25;0.93;;;20.50;1.00;;;;;;4862117;29;20056;-48
2023/06/05 10:11:26;;;;;;;3.10;0.98;;;20.50;1.00;;;;;;4859734;29;20049;-52
2023/06/05 10:13:53;;;;;;;1.23;0.90;;;20.50;1.00;;;;;;4859861;29;20057;-47
2023/06/05 10:16:21;;;;;;;1.60;1.00;;;20.50;1.00;;;;;;4859851;29;20124;-48
2023/06/05 10:18:55;;;;;;;2.37;1.20;;;20.50;1.00;;;;;;4852805;29;20050;-46
2023/06/05 10:21:23;;;;;;;1.40;1.00;;;20.50;1.00;;;;;;4859571;29;20136;-48
2023/06/05 10:24:06;;;;;;;1.63;0.82;;;20.50;1.00;;;;;;4859870;29;20041;-47
2023/06/05 10:27:03;;;;;;;3.80;1.00;;;20.50;1.00;;;;;;4859529;29;20045;-50
2023/06/05 10:29:56;;;;;;;1.67;1.17;;;20.50;1.00;;;;;;4860005;29;20588;-50
2023/06/05 10:32:29;;;;;;;1.47;0.70;;;20.50;1.00;;;;;;4860179;29;20057;-47
2023/06/05 10:35:16;;;;;;;1.67;1.20;;;20.50;1.00;;;;;;4860321;29;20489;-48
2023/06/05 10:38:09;;;;;;;2.72;1.17;;;20.50;1.00;;;;;;4862751;29;20049;-49
2023/06/05 10:40:36;;;;;;;2.77;1.17;;;20.50;1.00;;;;;;4863399;29;20090;-48
2023/06/05 10:43:37;;;;;;;1.42;1.00;;;20.50;1.00;;;;;;4863850;29;20682;-47
2023/06/05 10:46:30;;;;;;;1.90;0.98;;;20.50;1.00;;;;;;4864183;29;20401;-48
2023/06/05 10:49:12;;;;;;;3.03;0.93;;;20.50;1.00;;;;;;4863280;29;20053;-48
2023/06/05 10:51:44;;;;;;;3.20;1.20;;;20.50;1.00;;;;;;4862908;29;20052;-47
2023/06/05 10:54:24;;;;;;;2.75;0.60;;;20.50;1.00;;;;;;4862471;29;20064;-53
2023/06/05 10:57:01;;;;;;;1.10;0.75;;;20.50;1.00;;;;;;4863490;29;20350;-48
2023/06/05 10:59:36;;;;;;;1.75;0.95;;;20.50;1.00;;;;;;4862796;29;20132;-48
2023/06/05 11:04:48;;;;;;;1.38;0.80;;;20.50;1.00;;;;;;4863142;29;20079;-48
2023/06/05 11:07:21;;;;;;;1.60;0.93;;;20.50;1.00;;;;;;4863574;29;20044;-48
2023/06/05 11:12:38;;;;;;;1.00;0.68;;;20.50;1.00;;;;;;4863770;29;20046;-47
2023/06/05 11:15:12;;;;;;;2.42;1.00;;;20.50;1.00;;;;;;4863343;29;20037;-46
2023/06/05 11:17:41;;;;;;;1.98;1.20;;;20.50;1.00;;;;;;4863200;29;20112;-48
2023/06/05 11:20:20;;;;;;;1.17;0.90;;;20.50;1.00;;;;;;4862465;29;20113;-47
2023/06/05 11:22:53;;;;;;;2.78;0.90;;;20.50;1.00;;;;;;4863038;29;20379;-46
2023/06/05 11:25:24;;;;;;;1.08;0.70;;;20.50;1.00;;;;;;4863232;29;20049;-53
2023/06/05 11:28:02;;;;;;;2.17;1.33;;;20.50;1.00;;;;;;4855580;29;20041;-47
2023/06/05 11:30:32;;;;;;;2.40;1.35;;;20.50;1.00;;;;;;4862061;29;20050;-50
2023/06/05 11:33:20;;;;;;;2.97;1.35;;;20.50;1.00;;;;;;4861705;29;20041;-49
2023/06/05 11:35:50;;;;;;;2.05;1.83;;;20.50;1.00;;;;;;4862712;29;20420;-48
2023/06/05 11:38:19;;;;;;;2.08;0.90;;;20.50;1.00;;;;;;4862714;29;20459;-49
2023/06/05 11:40:50;;;;;;;1.88;1.23;;;20.50;1.00;;;;;;4854907;29;20101;-47
2023/06/05 11:43:17;;;;;;;1.10;0.80;;;20.50;1.00;;;;;;4862858;29;20037;-48
2023/06/05 11:45:57;;;;;;;3.33;1.17;;;20.50;1.00;;;;;;4862817;29;20075;-47
2023/06/05 11:48:25;;;;;;;1.88;1.20;;;20.50;1.00;;;;;;4862280;29;20046;-48
2023/06/05 11:51:02;;;;;;;1.92;1.10;;;20.50;1.00;;;;;;4862063;29;20128;-46
2023/06/05 11:53:31;;;;;;;2.75;1.30;;;20.50;1.00;;;;;;4862147;29;20390;-47
2023/06/05 11:58:36;;;;;;;3.72;1.80;;;20.50;1.00;;;;;;4861939;29;20507;-48
2023/06/05 12:01:14;;;;;;;2.97;1.70;;;20.50;1.00;;;;;;4861750;29;20042;-48
2023/06/05 12:03:42;;;;;;;2.20;1.25;;;20.50;1.00;;;;;;4861985;29;20046;-46
2023/06/05 12:06:09;;;;;;;1.90;1.42;;;20.50;1.00;;;;;;4861986;29;20041;-47
2023/06/05 12:08:36;;;;;;;1.40;1.08;;;20.50;1.00;;;;;;4864088;29;20461;-49
2023/06/05 12:11:04;;;;;;;3.05;1.13;;;20.50;1.00;;;;;;4861008;29;20053;-49
2023/06/05 12:13:54;;;;;;;3.75;1.27;;;20.60;1.00;;;;;;4860760;29;20049;-48
2023/06/05 12:16:40;;;;;;;2.58;1.33;;;20.60;1.00;;;;;;4862365;29;20049;-50
2023/06/05 12:19:18;;;;;;;1.80;1.10;;;20.60;1.00;;;;;;4862711;29;20419;-47
2023/06/05 12:21:47;;;;;;;1.75;1.00;;;20.50;1.00;;;;;;4861563;29;20069;-52
2023/06/05 12:24:15;;;;;;;2.60;1.48;;;20.50;1.00;;;;;;4862220;29;20045;-50
2023/06/05 12:26:53;;;;;;;2.22;1.30;;;20.50;1.00;;;;;;4861027;29;20084;-47
2023/06/05 12:29:22;;;;;;;1.20;0.98;;;20.60;1.00;;;;;;4862376;29;20486;-49
2023/06/05 12:31:51;;;;;;;2.75;1.20;;;20.50;1.00;;;;;;4861542;29;20596;-48
2023/06/05 12:34:18;;;;;;;3.78;1.60;;;20.60;1.00;;;;;;4862366;29;20132;-48
2023/06/05 12:36:47;;;;;;;2.22;1.20;;;20.60;1.00;;;;;;4862078;29;20041;-50
2023/06/05 12:39:15;;;;;;;1.63;1.25;;;20.60;1.00;;;;;;4862042;29;20037;-49
2023/06/05 12:41:44;;;;;;;1.80;1.45;;;20.50;1.00;;;;;;4861797;29;20053;-46
2023/06/05 12:44:10;;;;;;;4.18;1.77;;;20.60;1.00;;;;;;4862242;29;20038;-48
2023/06/05 12:46:38;;;;;;;3.22;1.63;;;20.60;1.00;;;;;;4862189;29;20104;-48
2023/06/05 12:49:05;;;;;;;2.45;1.60;;;20.60;1.00;;;;;;4861486;29;20033;-48
2023/06/05 12:51:32;;;;;;;2.58;1.40;;;20.60;1.00;;;;;;4861399;29;20525;-47
2023/06/05 12:53:59;;;;;;;2.08;1.70;;;20.60;1.00;;;;;;4861756;29;20405;-47
2023/06/05 12:56:28;;;;;;;2.20;1.08;;;20.60;1.00;;;;;;4861970;29;20498;-48
2023/06/05 12:58:57;;;;;;;2.42;1.48;;;20.60;1.00;;;;;;4853370;29;20120;-46
2023/06/05 13:01:25;;;;;;;2.58;1.50;;;20.60;1.00;;;;;;4861328;29;20494;-49
2023/06/05 13:03:52;;;;;;;2.55;1.15;;;20.60;1.00;;;;;;4861621;29;20117;-49
2023/06/05 13:06:20;;;;;;;1.67;1.05;;;20.60;1.00;;;;;;4860377;29;20050;-48
2023/06/05 13:08:47;;;;;;;1.85;1.33;;;20.60;1.00;;;;;;4863872;29;20445;-50
2023/06/05 13:11:14;;;;;;;2.00;1.20;;;20.60;1.00;;;;;;4861110;29;20072;-50
2023/06/05 13:13:41;;;;;;;2.15;1.38;;;20.60;1.00;;;;;;4861488;29;20057;-47
2023/06/05 13:16:10;;;;;;;1.98;1.13;;;20.60;1.00;;;;;;4861337;29;20124;-47
2023/06/05 13:18:37;;;;;;;2.53;1.42;;;20.60;1.00;;;;;;4861190;29;20080;-51